Time;durP1;ratioP1;P1;durP2;ratioP2;P2;SDS_P1;SDS_P2;PMS_P1;PMS_P2;Temp;Humidity;BMP_temperature;BMP_pressure;BME280_temperature;BME280_humidity;BME280_pressure;Samples;Min_cycle;Max_cycle;Signal;HPM_P1;HPM_P2
2023/01/04 00:00:44;;;;;;;9.25;8.85;;;;;;;-143.83;100.00;62900.06;5012877;28;20075;-66
2023/01/04 00:03:10;;;;;;;9.00;8.60;;;;;;;-143.83;100.00;62900.06;5012964;28;20056;-67
2023/01/04 00:05:36;;;;;;;9.38;8.98;;;;;;;-143.83;100.00;62900.06;5014836;28;20065;-68
2023/01/04 00:08:01;;;;;;;9.10;8.70;;;;;;;-143.83;100.00;62900.06;5011617;28;20025;-67
2023/01/04 00:10:26;;;;;;;9.27;8.88;;;;;;;-143.83;100.00;62900.06;5012511;28;20042;-68
2023/01/04 00:12:52;;;;;;;9.30;8.90;;;;;;;-143.83;100.00;62900.06;5013991;28;20104;-67
2023/01/04 00:15:17;;;;;;;9.27;8.88;;;;;;;-143.83;100.00;62900.06;5010247;28;20451;-67
2023/01/04 00:17:43;;;;;;;9.57;9.13;;;;;;;-143.83;100.00;62900.06;5012674;28;20515;-66
2023/01/04 00:20:09;;;;;;;9.57;9.07;;;;;;;-143.83;100.00;62900.06;5013814;28;20083;-68
2023/01/04 00:22:34;;;;;;;9.20;8.80;;;;;;;-143.83;100.00;62900.06;5015393;28;20029;-69
2023/01/04 00:25:00;;;;;;;8.80;8.40;;;;;;;-143.83;100.00;62900.06;5012354;28;20025;-67
2023/01/04 00:27:25;;;;;;;9.15;8.75;;;;;;;-143.83;100.00;62900.06;5013654;28;20436;-67
2023/01/04 00:29:51;;;;;;;10.25;9.75;;;;;;;-143.83;100.00;62900.06;5012181;28;20022;-67
2023/01/04 00:32:16;;;;;;;9.00;8.60;;;;;;;-143.83;100.00;62900.06;5013389;28;20030;-67
2023/01/04 00:34:42;;;;;;;9.32;8.93;;;;;;;-143.83;100.00;62900.06;5012607;28;20470;-67
2023/01/04 00:37:07;;;;;;;9.55;9.07;;;;;;;-143.83;100.00;62900.06;5013188;28;20026;-67
2023/01/04 00:39:33;;;;;;;9.05;8.65;;;;;;;-143.83;100.00;62900.06;5013819;28;20029;-67
2023/01/04 00:42:03;;;;;;;9.80;9.30;;;;;;;-143.83;100.00;62900.06;5010016;28;20080;-67
2023/01/04 00:44:31;;;;;;;9.43;9.00;;;;;;;-143.83;100.00;62900.06;5012768;28;20036;-67
2023/01/04 00:46:58;;;;;;;9.30;8.90;;;;;;;-143.83;100.00;62900.06;5013007;28;20030;-67
2023/01/04 00:49:24;;;;;;;9.65;9.18;;;;;;;-143.83;100.00;62900.06;5011990;28;20034;-67
2023/01/04 00:51:49;;;;;;;10.38;9.88;;;;;;;-143.83;100.00;62900.06;5010176;28;20026;-67
2023/01/04 00:54:15;;;;;;;9.18;8.77;;;;;;;-143.83;100.00;62900.06;5012957;28;20476;-67
2023/01/04 00:56:41;;;;;;;8.98;8.57;;;;;;;-143.83;100.00;62900.06;5014285;28;20106;-67
2023/01/04 00:59:07;;;;;;;9.27;8.82;;;;;;;-143.83;100.00;62900.06;5012485;28;20125;-66
2023/01/04 01:01:33;;;;;;;9.10;8.70;;;;;;;-143.83;100.00;62900.06;5012061;28;20535;-67
2023/01/04 01:04:01;;;;;;;9.40;9.00;;;;;;;-143.83;100.00;62900.06;5012798;28;20022;-67
2023/01/04 01:06:28;;;;;;;9.40;8.98;;;;;;;-143.83;100.00;62900.06;5009410;28;20113;-67
2023/01/04 01:08:54;;;;;;;9.60;9.10;;;;;;;-143.83;100.00;62900.06;5012051;28;20030;-67
2023/01/04 01:11:20;;;;;;;9.82;9.32;;;;;;;-143.83;100.00;62900.06;5011182;28;20501;-67
2023/01/04 01:13:46;;;;;;;9.48;9.02;;;;;;;-143.83;100.00;62900.06;5012053;28;20108;-69
2023/01/04 01:16:15;;;;;;;9.20;8.80;;;;;;;-143.83;100.00;62900.06;5012466;28;20565;-67
2023/01/04 01:18:43;;;;;;;9.38;8.98;;;;;;;-143.83;100.00;62900.06;5013462;28;20029;-68
2023/01/04 01:21:14;;;;;;;9.30;8.90;;;;;;;-143.83;100.00;62900.06;5012558;28;20104;-68
2023/01/04 01:23:40;;;;;;;9.02;8.63;;;;;;;-143.83;100.00;62900.06;5010767;28;20025;-68
2023/01/04 01:26:09;;;;;;;8.90;8.50;;;;;;;-143.83;100.00;62900.06;5008737;28;20032;-67
2023/01/04 01:28:35;;;;;;;9.05;8.65;;;;;;;-143.83;100.00;62900.06;5012588;28;20166;-67
2023/01/04 01:31:06;;;;;;;9.52;9.05;;;;;;;-143.83;100.00;62900.06;5012559;28;20028;-67
2023/01/04 01:33:32;;;;;;;9.15;8.75;;;;;;;-143.83;100.00;62900.06;5012156;28;20063;-68
2023/01/04 01:36:01;;;;;;;9.63;9.13;;;;;;;-143.83;100.00;62900.06;5012111;28;20489;-68
2023/01/04 01:38:27;;;;;;;9.85;9.35;;;;;;;-143.83;100.00;62900.06;5008611;28;20026;-67
2023/01/04 01:40:52;;;;;;;10.20;9.70;;;;;;;-143.83;100.00;62900.06;5010836;28;20044;-67
2023/01/04 01:43:21;;;;;;;9.90;9.40;;;;;;;-143.83;100.00;62900.06;5010488;28;20040;-67
2023/01/04 01:45:50;;;;;;;9.52;9.07;;;;;;;-143.83;100.00;62900.06;5011956;28;20052;-68
2023/01/04 01:48:22;;;;;;;9.30;8.90;;;;;;;-143.83;100.00;62900.06;5010550;28;20071;-67
2023/01/04 01:50:58;;;;;;;9.38;8.95;;;;;;;-143.83;100.00;62900.06;5011047;28;20030;-67
2023/01/04 01:53:27;;;;;;;9.32;8.93;;;;;;;-143.83;100.00;62900.06;5012081;28;20445;-67
2023/01/04 01:55:55;;;;;;;9.35;8.95;;;;;;;-143.83;100.00;62900.06;5010532;28;20374;-67
2023/01/04 01:58:27;;;;;;;9.25;8.85;;;;;;;-143.83;100.00;62900.06;5008457;28;20050;-67
2023/01/04 02:00:53;;;;;;;9.18;8.77;;;;;;;-143.83;100.00;62900.06;5009946;28;20022;-67
2023/01/04 02:03:21;;;;;;;9.50;9.05;;;;;;;-143.83;100.00;62900.06;5011246;28;20138;-67
2023/01/04 02:05:51;;;;;;;9.55;9.05;;;;;;;-143.83;100.00;62900.06;5012409;28;20104;-67
2023/01/04 02:08:18;;;;;;;9.20;8.80;;;;;;;-143.83;100.00;62900.06;5011481;28;20137;-67
2023/01/04 02:10:44;;;;;;;9.38;8.98;;;;;;;-143.83;100.00;62900.06;5011568;28;20034;-67
2023/01/04 02:14:25;;;;;;;10.00;9.50;;;;;;;-143.83;100.00;62900.06;5010314;28;20033;-66
2023/01/04 02:16:42;;;;;;;9.35;8.95;;;;;;;-143.83;100.00;62900.06;5010409;28;20499;-67
2023/01/04 02:19:32;;;;;;;9.10;8.70;;;;;;;-143.83;100.00;62900.06;5011368;28;20053;-66
2023/01/04 02:22:25;;;;;;;9.70;9.20;;;;;;;-143.83;100.00;62900.06;5009643;28;20022;-67
2023/01/04 02:25:09;;;;;;;9.43;8.98;;;;;;;-143.83;100.00;62900.06;5025558;28;20022;-67
2023/01/04 02:28:02;;;;;;;9.02;8.63;;;;;;;-143.83;100.00;62900.06;5008501;28;20061;-67
2023/01/04 02:30:43;;;;;;;9.30;8.90;;;;;;;-143.83;100.00;62900.06;5008765;28;20033;-67
2023/01/04 02:33:31;;;;;;;9.30;8.90;;;;;;;-143.83;100.00;62900.06;5007477;28;20026;-68
2023/01/04 02:36:18;;;;;;;9.85;9.35;;;;;;;-143.83;100.00;62900.06;5010711;28;20045;-68
2023/01/04 02:38:46;;;;;;;9.23;8.82;;;;;;;-143.83;100.00;62900.06;5010986;28;20076;-67
2023/01/04 02:41:29;;;;;;;9.30;8.90;;;;;;;-143.83;100.00;62900.06;5011407;28;20389;-66
2023/01/04 02:47:10;;;;;;;9.57;9.07;;;;;;;-143.83;100.00;62900.06;5008698;28;20041;-67
2023/01/04 02:52:22;;;;;;;10.02;9.52;;;;;;;-143.83;100.00;62900.06;5010948;28;20045;-67
2023/01/04 02:54:51;;;;;;;9.25;8.85;;;;;;;-143.83;100.00;62900.06;5011207;28;20037;-67
2023/01/04 02:57:57;;;;;;;8.98;8.57;;;;;;;-143.83;100.00;62900.06;5011009;28;20038;-68
2023/01/04 03:06:54;;;;;;;9.38;8.98;;;;;;;-143.83;100.00;62900.06;5008762;28;20033;-67
2023/01/04 03:09:28;;;;;;;9.60;9.10;;;;;;;-143.83;100.00;62900.06;5010418;28;20018;-67
2023/01/04 03:14:59;;;;;;;9.43;8.95;;;;;;;-143.83;100.00;62900.06;5010139;28;20087;-67
2023/01/04 03:17:26;;;;;;;9.38;8.98;;;;;;;-143.83;100.00;62900.06;5009507;28;20022;-66
2023/01/04 03:19:54;;;;;;;9.85;9.35;;;;;;;-143.83;100.00;62900.06;5008118;28;20052;-66
2023/01/04 03:36:42;;;;;;;9.05;8.65;;;;;;;-143.83;100.00;62900.06;5014275;28;20458;-67
2023/01/04 03:48:30;;;;;;;9.30;8.90;;;;;;;-143.83;100.00;62900.06;5014280;28;20032;-68
2023/01/04 03:51:08;;;;;;;9.00;8.60;;;;;;;-143.83;100.00;62900.06;5012734;28;20033;-68
2023/01/04 03:53:42;;;;;;;9.80;9.30;;;;;;;-143.83;100.00;62900.06;5010854;28;20030;-68
2023/01/04 03:56:10;;;;;;;8.93;8.52;;;;;;;-143.83;100.00;62900.06;5012445;28;20477;-68
2023/01/04 03:58:36;;;;;;;9.77;9.27;;;;;;;-143.83;100.00;62900.06;5013071;28;20042;-68
2023/01/04 04:01:04;;;;;;;9.70;9.20;;;;;;;-143.83;100.00;62900.06;5012782;28;20021;-68
2023/01/04 04:09:00;;;;;;;9.15;8.75;;;;;;;-143.83;100.00;62900.06;5011829;28;20036;-66
2023/01/04 04:11:29;;;;;;;9.50;9.02;;;;;;;-143.83;100.00;62900.06;5013714;28;20037;-68
2023/01/04 04:13:54;;;;;;;9.70;9.20;;;;;;;-143.83;100.00;62900.06;5013294;28;20080;-67
2023/01/04 04:16:20;;;;;;;9.48;8.98;;;;;;;-143.83;100.00;62900.06;5012792;28;20467;-67
2023/01/04 04:18:46;;;;;;;9.60;9.10;;;;;;;-143.83;100.00;62900.06;5012286;28;20042;-67
2023/01/04 04:21:13;;;;;;;9.18;8.77;;;;;;;-143.83;100.00;62900.06;5014089;28;20068;-66
2023/01/04 04:23:39;;;;;;;9.35;8.95;;;;;;;-143.83;100.00;62900.06;5012586;28;20036;-67
2023/01/04 04:26:04;;;;;;;9.13;8.73;;;;;;;-143.83;100.00;62900.06;5011660;28;20038;-67
2023/01/04 04:28:30;;;;;;;9.77;9.27;;;;;;;-143.83;100.00;62900.06;5013000;28;20021;-66
2023/01/04 04:30:55;;;;;;;10.10;9.60;;;;;;;-143.83;100.00;62900.06;5012621;28;20397;-68
2023/01/04 04:33:21;;;;;;;9.52;9.05;;;;;;;-143.83;100.00;62900.06;5012933;28;20397;-66
2023/01/04 04:35:51;;;;;;;9.10;8.70;;;;;;;-143.83;100.00;62900.06;5007880;28;20485;-66
2023/01/04 04:38:17;;;;;;;9.80;9.30;;;;;;;-143.83;100.00;62900.06;5012144;28;20136;-67
2023/01/04 04:43:27;;;;;;;9.27;8.88;;;;;;;-143.83;100.00;62900.06;5012908;28;20099;-68
2023/01/04 04:45:52;;;;;;;10.85;10.25;;;;;;;-143.83;100.00;62900.06;5008898;28;20053;-68
2023/01/04 04:48:17;;;;;;;9.68;9.18;;;;;;;-143.83;100.00;62900.06;5010778;28;20039;-67
2023/01/04 04:50:43;;;;;;;9.88;9.38;;;;;;;-143.83;100.00;62900.06;5012912;28;20022;-67
2023/01/04 04:53:08;;;;;;;9.38;8.95;;;;;;;-143.83;100.00;62900.06;5012975;28;20028;-67
2023/01/04 04:55:34;;;;;;;9.10;8.70;;;;;;;-143.83;100.00;62900.06;5014538;28;20029;-67
2023/01/04 04:57:59;;;;;;;9.68;9.18;;;;;;;-143.83;100.00;62900.06;5012505;28;20057;-67
2023/01/04 05:00:25;;;;;;;9.25;8.85;;;;;;;-143.83;100.00;62900.06;5014110;28;20108;-67
2023/01/04 05:02:50;;;;;;;9.75;9.25;;;;;;;-143.83;100.00;62900.06;5011108;28;20029;-68
2023/01/04 05:05:16;;;;;;;9.48;8.98;;;;;;;-143.83;100.00;62900.06;5010123;28;20402;-68
2023/01/04 05:07:41;;;;;;;9.60;9.10;;;;;;;-143.83;100.00;62900.06;5012945;28;20141;-68
2023/01/04 05:10:07;;;;;;;9.27;8.85;;;;;;;-143.83;100.00;62900.06;5011463;28;20448;-67
2023/01/04 05:15:16;;;;;;;9.52;9.05;;;;;;;-143.83;100.00;62900.06;5012810;28;20441;-67
2023/01/04 05:17:42;;;;;;;9.30;8.90;;;;;;;-143.83;100.00;62900.06;5014905;28;20034;-67
2023/01/04 05:20:08;;;;;;;9.88;9.38;;;;;;;-143.83;100.00;62900.06;5010055;28;20084;-67
2023/01/04 05:22:33;;;;;;;8.85;8.45;;;;;;;-143.83;100.00;62900.06;5011484;28;20026;-68
2023/01/04 05:24:59;;;;;;;8.90;8.50;;;;;;;-143.83;100.00;62900.06;5010683;28;20030;-66
2023/01/04 05:27:24;;;;;;;9.75;9.25;;;;;;;-143.83;100.00;62900.06;5012125;28;20044;-67
2023/01/04 05:32:34;;;;;;;9.88;9.38;;;;;;;-143.83;100.00;62900.06;5010355;28;20080;-67
2023/01/04 05:34:59;;;;;;;9.82;9.32;;;;;;;-143.83;100.00;62900.06;5010840;28;20050;-68
2023/01/04 05:37:25;;;;;;;9.70;9.20;;;;;;;-143.83;100.00;62900.06;5009631;28;20116;-67
2023/01/04 05:39:50;;;;;;;9.70;9.20;;;;;;;-143.83;100.00;62900.06;5010984;28;20025;-67
2023/01/04 05:42:25;;;;;;;9.80;9.30;;;;;;;-143.83;100.00;62900.06;5011831;28;20422;-67
2023/01/04 05:44:55;;;;;;;10.10;9.60;;;;;;;-143.83;100.00;62900.06;5011794;28;20022;-67
2023/01/04 05:47:21;;;;;;;9.98;9.48;;;;;;;-143.83;100.00;62900.06;5011283;28;20021;-67
2023/01/04 05:49:46;;;;;;;9.35;8.95;;;;;;;-143.83;100.00;62900.06;5012062;28;20072;-67
2023/01/04 05:52:12;;;;;;;10.13;9.63;;;;;;;-143.83;100.00;62900.06;5009385;28;20034;-67
2023/01/04 05:54:37;;;;;;;9.68;9.18;;;;;;;-143.83;100.00;62900.06;4993440;28;20033;-67
2023/01/04 05:57:03;;;;;;;9.75;9.25;;;;;;;-143.83;100.00;62900.06;5011005;28;20029;-68
2023/01/04 05:59:28;;;;;;;9.93;9.43;;;;;;;-143.83;100.00;62900.06;5011836;28;20030;-68
2023/01/04 06:01:54;;;;;;;9.43;8.93;;;;;;;-143.83;100.00;62900.06;5011752;28;20022;-68
2023/01/04 06:04:19;;;;;;;9.20;8.80;;;;;;;-143.83;100.00;62900.06;5011820;28;20046;-67
2023/01/04 06:06:45;;;;;;;9.70;9.20;;;;;;;-143.83;100.00;62900.06;5011465;28;20030;-67
2023/01/04 06:09:11;;;;;;;9.05;8.65;;;;;;;-143.83;100.00;62900.06;5008411;28;20072;-67
2023/01/04 06:11:36;;;;;;;9.52;9.02;;;;;;;-143.83;100.00;62900.06;5011782;28;20026;-67
2023/01/04 06:14:01;;;;;;;9.80;9.30;;;;;;;-143.83;100.00;62900.06;5009763;28;20101;-67
2023/01/04 06:16:27;;;;;;;10.38;9.85;;;;;;;-143.83;100.00;62900.06;5011936;28;20389;-67
2023/01/04 06:18:52;;;;;;;9.50;9.00;;;;;;;-143.83;100.00;62900.06;5010288;28;20417;-68
2023/01/04 06:21:18;;;;;;;9.05;8.65;;;;;;;-143.83;100.00;62900.06;5010492;28;20045;-68
2023/01/04 06:23:43;;;;;;;9.15;8.75;;;;;;;-143.83;100.00;62900.06;5011198;28;20080;-67
2023/01/04 06:26:09;;;;;;;9.63;9.13;;;;;;;-143.83;100.00;62900.06;5011482;28;20028;-67
2023/01/04 06:28:34;;;;;;;9.20;8.80;;;;;;;-143.83;100.00;62900.06;5011788;28;20125;-68
2023/01/04 06:31:06;;;;;;;9.95;9.45;;;;;;;-143.83;100.00;62900.06;5010447;28;20076;-68
2023/01/04 06:33:33;;;;;;;9.63;9.13;;;;;;;-143.83;100.00;62900.06;5011099;28;20401;-68
2023/01/04 06:35:59;;;;;;;10.23;9.73;;;;;;;-143.83;100.00;62900.06;5010041;28;20022;-67
2023/01/04 06:38:24;;;;;;;10.60;10.00;;;;;;;-143.83;100.00;62900.06;5009512;28;20508;-67
2023/01/04 06:40:50;;;;;;;9.70;9.20;;;;;;;-143.83;100.00;62900.06;5010021;28;20105;-68
2023/01/04 06:43:15;;;;;;;9.20;8.80;;;;;;;-143.83;100.00;62900.06;5009583;28;20080;-67
2023/01/04 06:45:41;;;;;;;9.90;9.40;;;;;;;-143.83;100.00;62900.06;5009465;28;20067;-68
2023/01/04 06:48:07;;;;;;;9.32;8.90;;;;;;;-143.83;100.00;62900.06;5042580;28;20026;-68
2023/01/04 06:50:33;;;;;;;9.10;8.70;;;;;;;-143.83;100.00;62900.06;5013342;28;20117;-68
2023/01/04 06:52:58;;;;;;;9.15;8.73;;;;;;;-143.83;100.00;62900.06;5008301;28;20545;-68
2023/01/04 06:55:24;;;;;;;9.60;9.10;;;;;;;-143.83;100.00;62900.06;5009210;28;20037;-66
2023/01/04 06:57:49;;;;;;;9.68;9.18;;;;;;;-143.83;100.00;62900.06;5012293;28;20570;-67
2023/01/04 07:00:15;;;;;;;9.40;8.95;;;;;;;-143.83;100.00;62900.06;5014951;28;20029;-67
2023/01/04 07:02:41;;;;;;;9.60;9.10;;;;;;;-143.83;100.00;62900.06;5012307;28;20496;-66
2023/01/04 07:05:06;;;;;;;9.00;8.60;;;;;;;-143.83;100.00;62900.06;5011564;28;20144;-66
2023/01/04 07:07:32;;;;;;;9.65;9.15;;;;;;;-143.83;100.00;62900.06;4997275;28;20052;-66
2023/01/04 07:09:58;;;;;;;10.13;9.63;;;;;;;-143.83;100.00;62900.06;5014777;28;20471;-67
2023/01/04 07:12:24;;;;;;;9.40;8.95;;;;;;;-143.83;100.00;62900.06;5017167;28;20112;-66
2023/01/04 07:14:50;;;;;;;9.20;8.80;;;;;;;-143.83;100.00;62900.06;5012563;28;20023;-66
2023/01/04 07:17:15;;;;;;;9.48;8.98;;;;;;;-143.83;100.00;62900.06;5013872;28;20175;-66
2023/01/04 07:19:41;;;;;;;10.55;9.95;;;;;;;-143.83;100.00;62900.06;5012748;28;20057;-64
2023/01/04 07:22:06;;;;;;;9.18;8.77;;;;;;;-143.83;100.00;62900.06;5013681;28;20025;-64
2023/01/04 07:24:32;;;;;;;9.68;9.18;;;;;;;-143.83;100.00;62900.06;5014376;28;20046;-66
2023/01/04 07:27:00;;;;;;;9.82;9.32;;;;;;;-143.83;100.00;62900.06;5014588;28;20029;-65
2023/01/04 07:29:26;;;;;;;9.55;9.05;;;;;;;-143.83;100.00;62900.06;5013417;28;20123;-66
2023/01/04 07:31:52;;;;;;;9.55;9.05;;;;;;;-143.83;100.00;62900.06;5010881;28;20026;-66
2023/01/04 07:34:20;;;;;;;9.80;9.30;;;;;;;-143.83;100.00;62900.06;5002487;28;20045;-70
2023/01/04 07:36:47;;;;;;;9.40;8.90;;;;;;;-143.83;100.00;62900.06;5011917;28;20025;-70
2023/01/04 07:39:13;;;;;;;9.55;9.05;;;;;;;-143.83;100.00;62900.06;5008880;28;20068;-70
2023/01/04 07:41:40;;;;;;;9.65;9.15;;;;;;;-143.83;100.00;62900.06;5012440;28;20438;-67
2023/01/04 07:44:06;;;;;;;9.52;9.02;;;;;;;-143.83;100.00;62900.06;5010569;28;20030;-69
2023/01/04 07:46:32;;;;;;;9.13;8.73;;;;;;;-143.83;100.00;62900.06;5012659;28;20026;-70
2023/01/04 07:48:58;;;;;;;9.57;9.07;;;;;;;-143.83;100.00;62900.06;5013178;28;20022;-69
2023/01/04 07:51:24;;;;;;;9.95;9.45;;;;;;;-143.83;100.00;62900.06;5010933;28;20378;-71
2023/01/04 07:53:49;;;;;;;9.77;9.27;;;;;;;-143.83;100.00;62900.06;5013996;28;20038;-70
2023/01/04 07:56:16;;;;;;;9.30;8.90;;;;;;;-143.83;100.00;62900.06;5010252;28;20030;-69
2023/01/04 07:58:41;;;;;;;9.70;9.20;;;;;;;-143.83;100.00;62900.06;5012171;28;20113;-68
2023/01/04 08:01:12;;;;;;;10.35;9.85;;;;;;;-143.83;100.00;62900.06;5011087;28;20025;-69
2023/01/04 08:03:39;;;;;;;10.35;9.82;;;;;;;-143.83;100.00;62900.06;5007911;28;20110;-69
2023/01/04 08:06:06;;;;;;;10.50;9.98;;;;;;;-143.83;100.00;62900.06;5011101;28;20029;-68
2023/01/04 08:08:32;;;;;;;9.40;8.98;;;;;;;-143.83;100.00;62900.06;5011474;28;20342;-70
2023/01/04 08:11:08;;;;;;;9.70;9.20;;;;;;;-143.83;100.00;62900.06;5007060;28;20026;-70
2023/01/04 08:13:34;;;;;;;8.90;8.50;;;;;;;-143.83;100.00;62900.06;5009336;28;20021;-68
2023/01/04 08:16:00;;;;;;;9.77;9.38;;;;;;;-143.83;100.00;62900.06;5009267;28;20473;-68
2023/01/04 08:18:25;;;;;;;9.27;8.88;;;;;;;-143.83;100.00;62900.06;5009354;28;20033;-71
2023/01/04 08:21:01;;;;;;;9.55;9.15;;;;;;;-143.83;100.00;62900.06;5011794;28;20520;-75
2023/01/04 08:23:27;;;;;;;9.65;9.25;;;;;;;-143.83;100.00;62900.06;5010285;28;20120;-74
2023/01/04 08:25:52;;;;;;;9.95;9.55;;;;;;;-143.83;100.00;62900.06;5010431;28;20152;-74
2023/01/04 08:28:18;;;;;;;10.10;9.70;;;;;;;-143.83;100.00;62900.06;5012078;28;20022;-72
2023/01/04 08:30:43;;;;;;;9.98;9.57;;;;;;;-143.83;100.00;62900.06;5011647;28;20137;-70
2023/01/04 08:33:15;;;;;;;10.55;10.05;;;;;;;-143.83;100.00;62900.06;5009646;28;20025;-69
2023/01/04 08:35:41;;;;;;;9.93;9.52;;;;;;;-143.83;100.00;62900.06;5012621;28;20030;-72
2023/01/04 08:38:06;;;;;;;11.00;10.50;;;;;;;-143.83;100.00;62900.06;5009056;28;20027;-69
2023/01/04 08:40:32;;;;;;;10.63;10.13;;;;;;;-143.83;100.00;62900.06;5009432;28;20077;-70
2023/01/04 08:42:57;;;;;;;10.18;9.75;;;;;;;-143.83;100.00;62900.06;5012893;28;20036;-70
2023/01/04 08:45:23;;;;;;;10.90;10.40;;;;;;;-143.83;100.00;62900.06;5010428;28;20478;-76
2023/01/04 08:47:48;;;;;;;10.40;9.90;;;;;;;-143.83;100.00;62900.06;5011778;28;20028;-76
2023/01/04 08:50:15;;;;;;;10.50;10.00;;;;;;;-143.83;100.00;62900.06;5012992;28;20022;-76
2023/01/04 08:52:41;;;;;;;10.30;9.85;;;;;;;-143.83;100.00;62900.06;5013132;28;20149;-77
2023/01/04 08:55:08;;;;;;;10.52;10.02;;;;;;;-143.83;100.00;62900.06;5012922;28;20457;-76
2023/01/04 08:57:35;;;;;;;10.40;9.90;;;;;;;-143.83;100.00;62900.06;5012724;28;20559;-75
2023/01/04 09:00:01;;;;;;;10.48;9.98;;;;;;;-143.83;100.00;62900.06;5012410;28;20029;-76
2023/01/04 09:02:27;;;;;;;10.40;9.90;;;;;;;-143.83;100.00;62900.06;5004357;28;20148;-72
2023/01/04 09:04:59;;;;;;;10.60;10.10;;;;;;;-143.83;100.00;62900.06;5010620;28;20037;-69
2023/01/04 09:07:27;;;;;;;10.43;9.93;;;;;;;-143.83;100.00;62900.06;5011363;28;20034;-69
2023/01/04 09:09:54;;;;;;;10.93;10.43;;;;;;;-143.83;100.00;62900.06;5007167;28;20361;-72
2023/01/04 09:12:20;;;;;;;11.00;10.50;;;;;;;-143.83;100.00;62900.06;5024172;28;20034;-73
2023/01/04 09:14:45;;;;;;;10.35;9.85;;;;;;;-143.83;100.00;62900.06;5010608;28;20497;-72
2023/01/04 09:17:11;;;;;;;10.88;10.38;;;;;;;-143.83;100.00;62900.06;5010165;28;20346;-70
2023/01/04 09:19:36;;;;;;;10.30;9.80;;;;;;;-143.83;100.00;62900.06;5009869;28;20029;-70
2023/01/04 09:22:02;;;;;;;10.27;9.77;;;;;;;-143.83;100.00;62900.06;5008763;28;20028;-72
2023/01/04 09:24:28;;;;;;;10.48;9.98;;;;;;;-143.83;100.00;62900.06;5008098;28;20029;-70
2023/01/04 09:26:53;;;;;;;10.98;10.48;;;;;;;-143.83;100.00;62900.06;5009031;28;20037;-70
2023/01/04 09:29:19;;;;;;;10.35;9.85;;;;;;;-143.83;100.00;62900.06;5011062;28;20025;-70
2023/01/04 09:31:44;;;;;;;10.10;9.65;;;;;;;-143.83;100.00;62900.06;5008874;28;20204;-70
2023/01/04 09:34:11;;;;;;;11.10;10.60;;;;;;;-143.83;100.00;62900.06;5008139;28;20030;-69
2023/01/04 09:36:37;;;;;;;10.35;9.85;;;;;;;-143.83;100.00;62900.06;5012019;28;20538;-70
2023/01/04 09:39:03;;;;;;;10.85;10.35;;;;;;;-143.83;100.00;62900.06;5008240;28;20057;-71
2023/01/04 09:41:33;;;;;;;10.50;10.00;;;;;;;-143.83;100.00;62900.06;5039994;28;20022;-68
2023/01/04 09:44:22;;;;;;;11.10;10.57;;;;;;;-143.83;100.00;62900.06;5010828;28;20509;-70
2023/01/04 09:47:01;;;;;;;11.10;10.60;;;;;;;-143.83;100.00;62900.06;5011964;28;22118;-70
2023/01/04 09:49:39;;;;;;;10.50;10.00;;;;;;;-143.83;100.00;62900.06;5010614;28;20401;-71
2023/01/04 09:52:32;;;;;;;10.70;10.20;;;;;;;-143.83;100.00;62900.06;5006532;28;20057;-72
2023/01/04 09:55:06;;;;;;;11.20;10.60;;;;;;;-143.83;100.00;62900.06;5037048;28;20026;-72
2023/01/04 09:57:39;;;;;;;10.35;9.85;;;;;;;-143.83;100.00;62900.06;5008490;28;20038;-72
2023/01/04 10:00:16;;;;;;;10.57;10.07;;;;;;;-143.83;100.00;62900.06;5008028;28;20088;-72
2023/01/04 10:02:50;;;;;;;10.07;9.57;;;;;;;-143.83;100.00;62900.06;5010255;28;20037;-71
2023/01/04 10:05:21;;;;;;;;;;;;;;;-143.83;100.00;62900.06;5009515;28;20030;-73
2023/01/04 10:07:47;;;;;;;10.02;9.52;;;;;;;-143.83;100.00;62900.06;5010148;28;19960;-71
2023/01/04 10:10:18;;;;;;;9.90;9.40;;;;;;;-143.83;100.00;62900.06;5011682;28;20045;-71
2023/01/04 10:12:51;;;;;;;10.38;9.88;;;;;;;-143.83;100.00;62900.06;5008691;28;20022;-69
2023/01/04 10:15:35;;;;;;;11.05;10.45;;;;;;;-143.83;100.00;62900.06;5009829;28;20489;-71
2023/01/04 10:18:24;;;;;;;10.30;9.80;;;;;;;-143.83;100.00;62900.06;5009139;28;20033;-71
2023/01/04 10:21:24;;;;;;;10.35;9.85;;;;;;;-143.83;100.00;62900.06;5008086;28;20038;-70
2023/01/04 10:24:21;;;;;;;10.63;10.10;;;;;;;-143.83;100.00;62900.06;5010508;28;20388;-74
2023/01/04 10:26:56;;;;;;;10.13;9.63;;;;;;;-143.83;100.00;62900.06;4987730;28;20509;-69
2023/01/04 10:29:37;;;;;;;10.77;10.18;;;;;;;-143.83;100.00;62900.06;5001754;28;20442;-72
2023/01/04 10:32:10;;;;;;;10.90;10.30;;;;;;;-143.83;100.00;62900.06;5006395;28;21045;-70
2023/01/04 10:34:41;;;;;;;10.90;10.30;;;;;;;-143.83;100.00;62900.06;5009982;28;20037;-71
2023/01/04 10:37:33;;;;;;;11.13;10.52;;;;;;;-143.83;100.00;62900.06;5013005;28;20053;-73
2023/01/04 10:39:59;;;;;;;10.10;9.60;;;;;;;-143.83;100.00;62900.06;5013094;28;20382;-72
2023/01/04 10:42:42;;;;;;;9.43;9.02;;;;;;;-143.83;100.00;62900.06;5014058;28;20028;-73
2023/01/04 10:45:32;;;;;;;10.55;10.02;;;;;;;-143.83;100.00;62900.06;5011325;28;20026;-73
2023/01/04 10:48:37;;;;;;;10.00;9.50;;;;;;;-143.83;100.00;62900.06;5007993;28;20431;-73
2023/01/04 10:51:05;;;;;;;10.15;9.65;;;;;;;-143.83;100.00;62900.06;5014456;28;20026;-72
2023/01/04 10:53:44;;;;;;;9.98;9.48;;;;;;;-143.83;100.00;62900.06;5015589;28;20046;-73
2023/01/04 10:56:19;;;;;;;9.30;8.90;;;;;;;-143.83;100.00;62900.06;5015166;28;20038;-73
2023/01/04 10:59:17;;;;;;;9.57;9.13;;;;;;;-143.83;100.00;62900.06;5012795;28;20520;-73
2023/01/04 11:01:51;;;;;;;10.20;9.70;;;;;;;-143.83;100.00;62900.06;5012758;28;20096;-72
2023/01/04 11:04:31;;;;;;;10.23;9.73;;;;;;;-143.83;100.00;62900.06;5013498;28;20170;-72
2023/01/04 11:07:09;;;;;;;9.50;9.10;;;;;;;-143.83;100.00;62900.06;5010747;28;20030;-71
2023/01/04 11:09:58;;;;;;;10.18;9.68;;;;;;;-143.83;100.00;62900.06;5012410;28;20034;-72
2023/01/04 11:12:25;;;;;;;10.50;9.95;;;;;;;-143.83;100.00;62900.06;5008857;28;20034;-70
2023/01/04 11:14:51;;;;;;;10.00;9.50;;;;;;;-143.83;100.00;62900.06;5010095;28;20076;-72
2023/01/04 11:17:19;;;;;;;9.70;9.20;;;;;;;-143.83;100.00;62900.06;5013278;28;20520;-72
2023/01/04 11:19:45;;;;;;;9.90;9.40;;;;;;;-143.83;100.00;62900.06;5013931;28;20042;-72
2023/01/04 11:22:20;;;;;;;10.20;9.70;;;;;;;-143.83;100.00;62900.06;5013936;28;20109;-73
2023/01/04 11:24:50;;;;;;;10.98;10.38;;;;;;;-143.83;100.00;62900.06;5012890;28;20477;-73
2023/01/04 11:27:23;;;;;;;9.88;9.38;;;;;;;-143.83;100.00;62900.06;5014625;28;20033;-73
2023/01/04 11:29:59;;;;;;;10.15;9.65;;;;;;;-143.83;100.00;62900.06;5011956;28;20044;-72
2023/01/04 11:32:43;;;;;;;10.25;9.75;;;;;;;-143.83;100.00;62900.06;5011955;28;20022;-72
2023/01/04 11:35:09;;;;;;;9.60;9.10;;;;;;;-143.83;100.00;62900.06;5014979;28;20056;-72
2023/01/04 11:37:37;;;;;;;9.73;9.23;;;;;;;-143.83;100.00;62900.06;5014465;28;20085;-73
2023/01/04 11:40:17;;;;;;;9.95;9.45;;;;;;;-143.83;100.00;62900.06;5014875;28;20097;-72
2023/01/04 11:42:45;;;;;;;10.20;9.70;;;;;;;-143.83;100.00;62900.06;5012761;28;20032;-72
2023/01/04 11:45:19;;;;;;;9.65;9.20;;;;;;;-143.83;100.00;62900.06;5012783;28;20032;-73
2023/01/04 11:47:56;;;;;;;;;;;;;;;-143.83;100.00;62900.06;5015071;28;20037;-73
2023/01/04 11:50:54;;;;;;;9.95;9.45;;;;;;;-143.83;100.00;62900.06;5012495;28;20395;-73
2023/01/04 11:53:36;;;;;;;9.80;9.30;;;;;;;-143.83;100.00;62900.06;5013305;28;20018;-73
2023/01/04 11:56:16;;;;;;;9.93;9.43;;;;;;;-143.83;100.00;62900.06;5025832;28;20031;-73
2023/01/04 11:58:43;;;;;;;9.70;9.20;;;;;;;-143.83;100.00;62900.06;5012975;28;20068;-72
2023/01/04 12:01:21;;;;;;;10.60;10.00;;;;;;;-143.83;100.00;62900.06;4996451;28;20061;-71
2023/01/04 12:03:47;;;;;;;9.43;9.00;;;;;;;-143.83;100.00;62900.06;5010104;28;20111;-74
2023/01/04 12:06:18;;;;;;;9.07;8.68;;;;;;;-143.83;100.00;62900.06;5012796;28;20465;-71
2023/01/04 12:08:44;;;;;;;9.75;9.25;;;;;;;-143.83;100.00;62900.06;5012739;28;20030;-73
2023/01/04 12:11:19;;;;;;;9.45;9.05;;;;;;;-143.83;100.00;62900.06;5012407;28;20065;-71